Time;durP1;ratioP1;P1;durP2;ratioP2;P2;SDS_P1;SDS_P2;PMS_P1;PMS_P2;Temp;Humidity;BMP_temperature;BMP_pressure;BME280_temperature;BME280_humidity;BME280_pressure;Samples;Min_cycle;Max_cycle;Signal;HPM_P1;HPM_P2
2021/05/18 00:01:58;;;;;;;14.20;10.53;;;;;;;12.76;68.71;100330.19;5099756;28;20204;-65
2021/05/18 00:04:23;;;;;;;14.57;11.20;;;;;;;13.12;66.83;100327.31;5099912;28;20176;-65
2021/05/18 00:06:49;;;;;;;12.27;10.13;;;;;;;13.00;67.31;100333.50;5100453;28;20255;-64
2021/05/18 00:11:58;;;;;;;21.30;10.10;;;;;;;12.81;67.03;100343.22;5099744;28;20392;-65
2021/05/18 00:14:25;;;;;;;16.73;10.40;;;;;;;13.25;65.83;100339.44;5100187;28;20406;-66
2021/05/18 00:16:52;;;;;;;11.80;9.17;;;;;;;13.00;66.69;100346.56;5099763;28;20172;-67
2021/05/18 00:19:17;;;;;;;12.97;9.77;;;;;;;12.83;66.99;100353.66;5099645;28;20389;-65
2021/05/18 00:21:43;;;;;;;12.47;9.30;;;;;;;13.10;65.92;100358.72;5099650;28;20465;-65
2021/05/18 00:24:09;;;;;;;12.03;8.60;;;;;;;13.36;64.56;100354.22;5099431;28;20212;-65
2021/05/18 00:26:34;;;;;;;13.50;9.23;;;;;;;12.94;65.54;100359.72;5100675;28;20180;-65
2021/05/18 00:28:59;;;;;;;10.80;9.07;;;;;;;12.66;66.32;100366.84;5099791;28;20738;-64
2021/05/18 00:31:25;;;;;;;11.37;9.30;;;;;;;12.92;65.89;100364.97;5112289;28;20540;-65
2021/05/18 00:33:50;;;;;;;10.87;8.80;;;;;;;12.92;64.90;100372.81;5119784;28;20182;-64
2021/05/18 00:36:16;;;;;;;10.60;8.80;;;;;;;13.00;65.35;100370.13;5120090;28;20247;-63
2021/05/18 00:38:41;;;;;;;9.57;8.57;;;;;;;12.90;65.19;100371.94;5119908;28;20175;-65
2021/05/18 00:41:08;;;;;;;14.37;9.40;;;;;;;12.32;66.63;100374.84;5101351;28;20211;-65
2021/05/18 00:43:35;;;;;;;11.97;8.40;;;;;;;12.73;65.25;100379.91;5099652;28;20544;-64
2021/05/18 00:46:00;;;;;;;9.50;7.77;;;;;;;12.33;66.68;100382.66;5099171;28;20493;-65
2021/05/18 00:48:25;;;;;;;10.13;8.10;;;;;;;12.34;67.03;100383.53;5099092;28;20462;-64
2021/05/18 00:50:54;;;;;;;13.17;8.00;;;;;;;12.41;66.92;100380.91;5099237;28;20180;-64
2021/05/18 00:53:20;;;;;;;11.83;7.90;;;;;;;12.74;65.32;100385.97;5099033;28;20194;-65
2021/05/18 00:55:59;;;;;;;10.27;7.87;;;;;;;12.73;65.32;100389.47;5114025;28;20464;-64
2021/05/18 00:58:33;;;;;;;13.37;8.70;;;;;;;12.54;65.33;100392.19;5119446;28;20437;-65
2021/05/18 01:01:01;;;;;;;13.30;8.87;;;;;;;12.67;64.64;100394.75;5119063;28;20461;-66
2021/05/18 01:03:27;;;;;;;9.57;8.57;;;;;;;12.69;64.78;100390.38;5119262;28;20475;-65
2021/05/18 01:08:37;;;;;;;13.33;8.80;;;;;;;12.77;65.33;100399.03;5119924;28;20274;-64
2021/05/18 01:11:03;;;;;;;11.23;8.63;;;;;;;13.03;64.09;100400.63;5098917;28;20513;-65
2021/05/18 01:13:30;;;;;;;10.33;8.40;;;;;;;12.65;64.94;100410.44;5099474;28;20176;-65
2021/05/18 01:15:56;;;;;;;16.83;8.87;;;;;;;12.53;65.42;100411.38;5098729;28;20793;-65
2021/05/18 01:18:21;;;;;;;12.37;8.97;;;;;;;12.71;65.40;100417.41;5098868;28;20439;-65
2021/05/18 01:21:00;;;;;;;12.73;9.87;;;;;;;12.81;64.95;100411.22;5098365;28;20548;-65
2021/05/18 01:23:26;;;;;;;12.27;10.07;;;;;;;12.80;64.28;100415.59;5098103;28;20176;-64
2021/05/18 01:25:51;;;;;;;10.70;8.50;;;;;;;12.74;65.10;100418.22;5099341;28;20455;-63
2021/05/18 01:28:17;;;;;;;13.90;9.23;;;;;;;12.61;65.05;100424.38;5098792;28;20426;-64
2021/05/18 01:30:43;;;;;;;17.40;9.53;;;;;;;12.45;65.33;100423.59;5098732;28;20209;-65
2021/05/18 01:33:08;;;;;;;15.30;9.50;;;;;;;12.84;64.73;100426.94;5097914;28;20221;-65
2021/05/18 01:35:34;;;;;;;10.43;8.73;;;;;;;12.49;64.49;100435.78;5098600;28;20697;-64
2021/05/18 01:38:00;;;;;;;13.30;9.70;;;;;;;12.85;63.36;100428.66;5098335;28;20187;-64
2021/05/18 01:42:54;;;;;;;11.83;9.70;;;;;;;12.38;65.29;100443.66;5098175;28;20462;-64
2021/05/18 01:45:32;;;;;;;10.77;9.60;;;;;;;12.63;64.29;100440.94;5098616;28;20176;-64
2021/05/18 01:48:03;;;;;;;13.80;9.40;;;;;;;12.37;64.56;100441.06;5098408;28;20414;-64
2021/05/18 01:50:29;;;;;;;14.40;10.30;;;;;;;12.53;64.50;100447.06;5098162;28;20421;-65
2021/05/18 01:52:55;;;;;;;15.03;10.37;;;;;;;12.23;65.72;100455.00;5098203;28;20404;-65
2021/05/18 01:55:34;;;;;;;12.57;10.30;;;;;;;12.30;65.24;100455.88;5097623;28;20415;-65
2021/05/18 01:58:00;;;;;;;12.20;9.07;;;;;;;12.15;65.42;100458.50;5105108;28;20426;-65
2021/05/18 02:00:29;;;;;;;13.27;10.80;;;;;;;11.91;66.07;100466.31;5118589;28;20400;-64
2021/05/18 02:02:55;;;;;;;13.67;11.27;;;;;;;12.62;63.88;100460.13;5118813;28;20187;-64
2021/05/18 02:05:21;;;;;;;12.10;10.13;;;;;;;12.48;64.42;100467.16;5118569;28;20470;-64
2021/05/18 02:07:51;;;;;;;13.40;10.43;;;;;;;12.24;65.03;100471.56;5118383;28;20417;-64
2021/05/18 02:10:18;;;;;;;12.10;9.97;;;;;;;12.32;65.03;100469.78;5118995;28;20388;-64
2021/05/18 02:12:44;;;;;;;17.60;10.63;;;;;;;12.26;64.79;100467.22;5118230;28;20433;-64
2021/05/18 02:17:55;;;;;;;14.20;9.47;;;;;;;12.35;66.11;100479.38;5117839;28;20391;-64
2021/05/18 02:25:32;;;;;;;13.17;9.40;;;;;;;12.51;63.62;100482.84;5118160;28;20545;-65
2021/05/18 02:27:58;;;;;;;13.90;9.07;;;;;;;12.53;63.46;100486.31;5118416;28;20651;-64
2021/05/18 02:30:24;;;;;;;14.67;8.80;;;;;;;12.56;63.27;100489.78;5118531;28;20401;-65
2021/05/18 02:32:50;;;;;;;13.50;8.37;;;;;;;12.44;63.17;100495.91;5118899;28;20258;-65
2021/05/18 02:35:16;;;;;;;14.60;8.63;;;;;;;12.38;63.82;100500.28;5122166;28;20405;-65
2021/05/18 02:37:42;;;;;;;11.73;8.90;;;;;;;12.20;63.69;100495.97;5122030;28;20168;-65
2021/05/18 02:40:15;;;;;;;8.90;8.00;;;;;;;12.09;63.31;100503.81;5120800;28;20432;-64
2021/05/18 02:42:40;;;;;;;10.80;7.77;;;;;;;12.05;64.16;100509.91;5121788;28;20555;-64
2021/05/18 02:45:12;;;;;;;11.40;8.07;;;;;;;12.10;63.60;100514.25;5121836;28;20392;-65
2021/05/18 02:50:21;;;;;;;11.40;7.80;;;;;;;12.12;61.64;100509.03;5121980;28;20399;-65
2021/05/18 02:52:46;;;;;;;10.90;7.80;;;;;;;12.29;61.07;100511.63;5121777;28;20417;-65
2021/05/18 02:55:19;;;;;;;9.40;8.10;;;;;;;12.29;61.14;100511.63;5119965;28;20175;-65
2021/05/18 02:57:46;;;;;;;7.90;6.90;;;;;;;12.59;59.96;100513.31;5122108;28;20179;-65
2021/05/18 03:00:16;;;;;;;10.77;7.67;;;;;;;12.26;59.63;100511.66;5121730;28;20429;-65
2021/05/18 03:02:42;;;;;;;26.07;9.63;;;;;;;12.48;59.63;100514.22;5121482;28;20831;-64
2021/05/18 03:05:08;;;;;;;13.40;7.50;;;;;;;12.24;60.31;100524.69;5122025;28;20405;-65
2021/05/18 03:07:33;;;;;;;7.50;6.70;;;;;;;11.98;61.03;100522.09;5121914;28;20498;-63
2021/05/18 03:09:58;;;;;;;21.17;12.63;;;;;;;12.42;60.02;100517.69;5120275;28;20460;-65
2021/05/18 03:12:24;;;;;;;10.97;9.80;;;;;;;12.60;59.27;100512.44;5101236;28;20251;-64
2021/05/18 03:14:49;;;;;;;14.40;10.33;;;;;;;12.56;59.31;100522.94;5100862;28;20183;-64
2021/05/18 03:17:15;;;;;;;13.60;10.67;;;;;;;12.59;59.55;100520.28;5101100;28;20213;-65
2021/05/18 03:19:40;;;;;;;10.50;6.60;;;;;;;11.92;61.76;100529.88;5101170;28;20172;-64
2021/05/18 03:22:05;;;;;;;8.10;6.20;;;;;;;12.41;59.72;100523.81;5100603;28;20846;-64
2021/05/18 03:24:31;;;;;;;10.20;7.37;;;;;;;12.48;59.62;100528.16;5100626;28;20263;-64
2021/05/18 03:26:56;;;;;;;9.93;6.80;;;;;;;12.22;59.95;100530.81;5101236;28;20247;-65
2021/05/18 03:29:29;;;;;;;9.77;6.50;;;;;;;12.32;59.99;100527.31;5100666;28;20179;-65
2021/05/18 03:34:52;;;;;;;9.97;6.30;;;;;;;12.40;59.51;100529.91;5120239;28;20412;-65
2021/05/18 03:40:08;;;;;;;9.90;6.43;;;;;;;12.29;58.64;100538.63;5120820;28;20177;-64
2021/05/18 03:42:38;;;;;;;9.23;6.30;;;;;;;12.06;58.61;100538.63;5120694;28;20805;-64
2021/05/18 03:45:27;;;;;;;12.30;8.70;;;;;;;12.18;59.06;100536.88;5120079;28;20670;-64
2021/05/18 04:04:14;;;;;;;9.13;6.63;;;;;;;14.89;52.07;100547.63;5120535;28;20462;-65
2021/05/18 04:12:31;;;;;;;12.13;8.30;;;;;;;15.90;48.55;100541.06;5118206;28;20414;-65
2021/05/18 04:17:51;;;;;;;11.53;6.87;;;;;;;16.87;45.86;100531.47;5120236;28;20858;-65
2021/05/18 04:20:34;;;;;;;8.50;6.47;;;;;;;17.63;44.39;100533.41;5120127;28;20423;-65
2021/05/18 04:26:00;;;;;;;12.20;8.80;;;;;;;17.81;44.02;100528.59;5110372;28;20493;-65
2021/05/18 04:39:48;;;;;;;6.80;6.10;;;;;;;19.41;40.53;100549.03;5119225;28;20791;-64
2021/05/18 04:53:03;;;;;;;8.17;6.40;;;;;;;17.50;44.90;100558.31;5119329;28;20667;-64
2021/05/18 05:01:00;;;;;;;9.47;5.97;;;;;;;18.92;41.99;100564.53;5098916;28;20554;-65
2021/05/18 05:06:21;;;;;;;8.47;7.53;;;;;;;15.22;51.00;100584.00;5118049;28;20449;-64
2021/05/18 05:08:53;;;;;;;10.77;6.50;;;;;;;16.04;49.41;100589.06;5098461;28;20521;-65
2021/05/18 05:16:28;;;;;;;8.87;6.10;;;;;;;18.96;41.72;100580.25;5098699;28;20217;-64
2021/05/18 05:18:54;;;;;;;9.03;7.13;;;;;;;18.75;41.23;100575.53;5098117;28;20746;-64
2021/05/18 05:21:21;;;;;;;7.37;6.23;;;;;;;18.64;41.85;100578.44;5098237;28;20203;-64
2021/05/18 05:23:48;;;;;;;16.53;10.17;;;;;;;19.55;40.36;100585.63;5101520;28;20175;-64
2021/05/18 05:26:14;;;;;;;7.60;6.50;;;;;;;19.71;39.67;100586.03;5119106;28;20409;-65
2021/05/18 05:28:39;;;;;;;10.57;6.77;;;;;;;19.96;39.01;100584.38;5101635;28;20689;-65
2021/05/18 05:31:08;;;;;;;8.27;7.40;;;;;;;20.29;38.96;100585.97;5096886;28;20176;-65
2021/05/18 05:33:38;;;;;;;10.33;7.30;;;;;;;21.09;36.74;100582.34;5104696;28;20187;-65
2021/05/18 05:36:04;;;;;;;7.97;6.77;;;;;;;20.58;37.69;100581.47;5118689;28;20409;-65
2021/05/18 05:38:30;;;;;;;6.90;6.00;;;;;;;20.97;37.17;100581.88;5105513;28;20184;-66
2021/05/18 05:40:56;;;;;;;8.43;7.27;;;;;;;20.14;38.09;100582.06;5098508;28;20534;-66
2021/05/18 05:43:21;;;;;;;8.50;7.10;;;;;;;20.96;37.55;100587.22;5098188;28;20424;-67
2021/05/18 05:45:49;;;;;;;10.10;8.60;;;;;;;20.23;38.08;100595.00;5111914;28;20187;-66
2021/05/18 05:48:14;;;;;;;7.70;6.83;;;;;;;21.70;35.62;100588.03;5110452;28;20563;-66
2021/05/18 05:50:40;;;;;;;9.50;7.03;;;;;;;21.91;35.09;100581.94;5114912;28;20441;-66
2021/05/18 05:53:05;;;;;;;9.13;7.30;;;;;;;21.08;36.89;100592.09;5118454;28;20525;-66
2021/05/18 05:55:31;;;;;;;9.50;7.40;;;;;;;21.12;36.84;100590.19;5111881;28;20184;-65
2021/05/18 05:57:56;;;;;;;8.30;6.03;;;;;;;21.05;38.64;100592.19;5101242;28;20599;-61
2021/05/18 06:00:21;;;;;;;10.17;6.57;;;;;;;21.37;36.36;100598.09;5116978;28;20202;-66
2021/05/18 06:02:47;;;;;;;7.90;6.07;;;;;;;19.46;40.69;100600.84;5112381;28;20207;-63
2021/05/18 06:05:12;;;;;;;11.00;7.10;;;;;;;19.53;41.69;100601.53;5099122;28;20191;-63
2021/05/18 06:07:38;;;;;;;8.03;6.30;;;;;;;19.26;41.67;100613.78;5101137;28;20525;-65
2021/05/18 06:10:10;;;;;;;11.67;6.90;;;;;;;18.58;42.41;100610.28;5112768;28;20556;-67
2021/05/18 06:12:49;;;;;;;8.60;7.07;;;;;;;17.81;44.64;100610.34;5102081;28;20179;-62
2021/05/18 06:15:43;;;;;;;9.23;6.63;;;;;;;18.08;46.52;100615.94;5120560;28;20663;-62
2021/05/18 06:42:48;;;;;;;10.67;6.67;;;;;;;16.76;48.70;100647.50;5121546;28;20539;-61
2021/05/18 06:47:57;;;;;;;9.00;7.10;;;;;;;17.55;47.19;100643.41;5121761;28;20448;-62
2021/05/18 06:50:28;;;;;;;8.13;7.17;;;;;;;17.24;47.78;100649.31;5112118;27;20819;-61
2021/05/18 06:52:55;;;;;;;10.80;7.27;;;;;;;17.82;47.06;100641.94;5142077;27;20167;-62
2021/05/18 06:55:25;;;;;;;9.83;7.03;;;;;;;19.10;44.00;100640.63;5122780;27;20860;-62
2021/05/18 06:57:57;;;;;;;9.63;7.47;;;;;;;18.12;45.87;100652.75;5121332;28;20774;-62
2021/05/18 07:00:22;;;;;;;9.93;8.50;;;;;;;16.80;48.74;100670.25;5119136;27;20448;-68
2021/05/18 07:02:51;;;;;;;9.53;8.10;;;;;;;16.29;50.22;100663.19;5121420;27;20511;-68
2021/05/18 07:05:34;;;;;;;10.33;8.23;;;;;;;16.39;50.40;100663.91;5121291;28;20444;-66
2021/05/18 07:10:44;;;;;;;10.23;8.03;;;;;;;16.23;51.24;100651.91;5121301;28;20417;-67
2021/05/18 07:13:10;;;;;;;8.73;7.93;;;;;;;16.56;50.23;100666.28;5103658;28;20404;-67
2021/05/18 07:15:36;;;;;;;11.03;9.47;;;;;;;16.67;49.88;100671.38;5100586;28;20389;-66
2021/05/18 07:18:01;;;;;;;10.30;9.30;;;;;;;17.42;48.51;100663.03;5099780;28;20449;-67
2021/05/18 07:20:28;;;;;;;10.50;8.63;;;;;;;17.67;47.69;100668.63;5104911;28;20183;-67
2021/05/18 07:22:56;;;;;;;11.67;9.70;;;;;;;17.95;46.85;100662.81;5120488;28;20547;-68
2021/05/18 07:25:21;;;;;;;10.90;8.70;;;;;;;17.60;47.67;100667.03;5112770;27;20471;-67
2021/05/18 07:27:47;;;;;;;10.53;9.30;;;;;;;18.31;45.70;100669.00;5109322;28;20516;-69
2021/05/18 07:30:13;;;;;;;11.30;9.93;;;;;;;17.42;47.72;100674.41;5107434;28;20188;-65
2021/05/18 07:32:39;;;;;;;12.20;9.23;;;;;;;17.31;48.55;100677.25;5100135;28;20221;-66
2021/05/18 07:35:05;;;;;;;11.20;8.70;;;;;;;17.95;46.74;100676.00;5100558;28;20430;-67
2021/05/18 07:37:31;;;;;;;10.50;9.40;;;;;;;17.76;47.00;100678.13;5100193;28;20180;-68
2021/05/18 07:39:56;;;;;;;10.03;9.00;;;;;;;17.56;48.10;100673.28;5099380;28;20400;-68
2021/05/18 07:42:22;;;;;;;9.03;8.23;;;;;;;17.51;46.76;100678.66;5106129;28;20279;-68
2021/05/18 07:44:47;;;;;;;12.87;8.67;;;;;;;17.81;46.88;100677.13;5120513;27;20449;-67
2021/05/18 07:47:14;;;;;;;9.90;9.00;;;;;;;18.21;46.31;100675.41;5101537;28;20216;-68
2021/05/18 07:49:50;;;;;;;10.73;9.63;;;;;;;18.80;44.25;100681.91;5099989;28;20262;-68
2021/05/18 08:00:38;;;;;;;8.77;7.97;;;;;;;19.44;42.88;100679.34;5111817;28;20459;-66
2021/05/18 08:05:53;;;;;;;8.83;8.03;;;;;;;17.12;47.22;100681.16;5120152;28;20416;-66
2021/05/18 08:08:19;;;;;;;8.40;7.60;;;;;;;17.07;47.49;100688.28;5117921;28;20429;-67
2021/05/18 08:13:10;;;;;;;9.83;7.37;;;;;;;18.81;42.74;100676.59;5111942;28;20176;-68
2021/05/18 08:15:47;;;;;;;8.53;7.73;;;;;;;17.57;45.74;100675.00;5099476;28;20430;-67
2021/05/18 08:58:17;;;;;;;5.83;5.20;;;;;;;16.85;46.11;100688.63;5098694;28;20391;-66
2021/05/18 09:28:52;;;;;;;7.37;6.33;;;;;;;16.70;46.23;100695.00;5098517;28;20543;-69
2021/05/18 09:47:17;;;;;;;6.63;5.50;;;;;;;16.05;47.31;100722.28;5098136;28;20392;-66
2021/05/18 10:15:34;;;;;;;5.17;4.70;;;;;;;15.74;46.77;100733.13;5127575;28;20442;-67
2021/05/18 10:38:32;;;;;;;5.50;5.03;;;;;;;17.46;43.54;100723.53;5124284;27;20899;-67
2021/05/18 10:41:17;;;;;;;5.20;4.80;;;;;;;17.42;41.72;100721.84;5121083;27;20418;-68
2021/05/18 10:43:44;;;;;;;5.50;5.00;;;;;;;18.09;41.41;100720.53;5133991;27;20428;-67
2021/05/18 10:46:12;;;;;;;5.97;4.80;;;;;;;18.06;39.88;100715.34;5122778;27;20437;-67
2021/05/18 10:48:37;;;;;;;5.83;4.67;;;;;;;17.91;40.02;100720.00;5125385;28;20433;-67
2021/05/18 10:51:35;;;;;;;4.63;4.30;;;;;;;17.71;41.29;100727.44;5102042;28;20903;-68
2021/05/18 10:54:38;;;;;;;5.63;4.30;;;;;;;16.82;42.95;100723.75;5123064;27;20189;-68
2021/05/18 10:57:14;;;;;;;5.20;4.63;;;;;;;16.87;43.59;100734.19;5117213;27;20440;-66
2021/05/18 10:59:56;;;;;;;5.10;4.43;;;;;;;16.70;44.79;100737.13;5126302;27;20453;-65
2021/05/18 11:02:25;;;;;;;7.13;4.70;;;;;;;15.73;45.82;100735.78;5115308;27;20501;-66
2021/05/18 11:05:02;;;;;;;4.77;4.37;;;;;;;15.98;46.51;100747.78;5103427;27;20670;-65
2021/05/18 11:07:30;;;;;;;5.20;4.70;;;;;;;15.62;46.57;100742.03;5108427;27;20698;-66
2021/05/18 11:09:55;;;;;;;6.00;5.50;;;;;;;15.09;48.19;100744.31;5116598;28;20433;-65
2021/05/18 11:12:24;;;;;;;5.30;4.80;;;;;;;16.00;46.01;100735.47;5120559;27;20425;-64
2021/05/18 11:14:58;;;;;;;5.20;4.70;;;;;;;16.11;46.33;100735.31;5121497;27;20176;-64
2021/05/18 11:17:31;;;;;;;4.87;4.47;;;;;;;15.48;47.66;100736.06;5114107;27;20848;-65
2021/05/18 11:20:08;;;;;;;6.40;5.73;;;;;;;15.52;47.86;100744.78;5111958;28;20493;-64
2021/05/18 11:25:32;;;;;;;6.17;5.67;;;;;;;15.58;48.29;100744.72;5117916;27;20872;-63
2021/05/18 11:28:08;;;;;;;5.50;5.00;;;;;;;16.12;46.61;100744.09;5125485;27;20444;-65
2021/05/18 11:30:34;;;;;;;6.07;5.47;;;;;;;16.51;45.27;100741.81;5113375;27;20411;-65
2021/05/18 11:33:00;;;;;;;4.80;4.40;;;;;;;16.30;45.74;100749.13;5132870;27;22452;-65
2021/05/18 11:35:25;;;;;;;5.03;4.63;;;;;;;16.93;43.99;100754.34;5136459;27;20399;-64
2021/05/18 11:38:03;;;;;;;6.30;5.70;;;;;;;17.38;42.93;100738.63;5121443;27;20191;-65
2021/05/18 11:40:28;;;;;;;8.33;6.60;;;;;;;17.39;43.05;100748.28;5114535;27;20179;-64
2021/05/18 11:42:54;;;;;;;5.00;4.60;;;;;;;17.71;42.83;100738.00;5101826;28;20479;-65
2021/05/18 11:45:20;;;;;;;6.97;6.27;;;;;;;17.87;43.13;100738.56;5137299;27;20209;-64
2021/05/18 11:47:46;;;;;;;7.50;6.90;;;;;;;17.93;42.37;100739.34;5113804;28;20178;-64
2021/05/18 11:50:17;;;;;;;6.47;5.87;;;;;;;17.80;43.53;100749.22;5102750;27;20430;-64
2021/05/18 11:52:42;;;;;;;7.63;6.97;;;;;;;17.60;44.52;100751.38;5103593;27;20434;-64
2021/05/18 11:55:23;;;;;;;7.87;7.17;;;;;;;18.18;44.19;100749.34;5115150;27;20462;-65
2021/05/18 11:57:51;;;;;;;8.33;7.33;;;;;;;17.45;46.54;100750.78;5130688;27;20179;-65
2021/05/18 12:00:20;;;;;;;9.87;7.37;;;;;;;18.03;45.63;100758.47;5110489;27;20472;-65
2021/05/18 12:02:45;;;;;;;7.10;6.40;;;;;;;18.49;43.95;100746.03;5100133;28;20546;-64
2021/05/18 12:05:11;;;;;;;6.87;6.20;;;;;;;18.67;43.69;100737.69;5104462;27;20430;-64
2021/05/18 12:07:37;;;;;;;6.93;6.30;;;;;;;19.39;41.28;100739.44;5123094;27;20574;-64
2021/05/18 12:10:02;;;;;;;6.70;6.10;;;;;;;19.38;41.02;100735.03;5105124;27;20462;-64
2021/05/18 12:12:35;;;;;;;6.23;5.63;;;;;;;19.38;40.69;100731.53;5121354;27;20449;-64
2021/05/18 12:15:01;;;;;;;4.90;4.50;;;;;;;19.71;39.08;100737.66;5136002;27;20218;-64
2021/05/18 12:17:31;;;;;;;6.00;5.40;;;;;;;19.93;37.40;100739.69;5123704;27;20471;-64
2021/05/18 12:19:58;;;;;;;4.70;4.30;;;;;;;19.18;39.08;100744.34;5131341;27;20232;-65
2021/05/18 12:22:24;;;;;;;4.67;4.33;;;;;;;19.73;38.00;100746.41;5107554;27;20469;-64
2021/05/18 12:24:50;;;;;;;5.10;4.60;;;;;;;18.96;39.47;100745.84;5118999;27;20536;-64
2021/05/18 12:27:15;;;;;;;4.00;3.70;;;;;;;19.02;39.24;100735.97;5122918;27;20612;-64
2021/05/18 12:29:52;;;;;;;4.07;3.67;;;;;;;18.84;38.58;100739.03;5133907;27;20440;-64
2021/05/18 12:32:26;;;;;;;3.90;3.50;;;;;;;18.57;38.96;100740.59;5130648;27;20239;-66
2021/05/18 12:35:01;;;;;;;4.17;3.77;;;;;;;18.50;38.90;100735.44;5121494;27;20860;-65
2021/05/18 12:37:32;;;;;;;4.57;4.20;;;;;;;18.95;38.80;100742.31;5107974;27;20793;-65
2021/05/18 12:39:57;;;;;;;9.23;4.17;;;;;;;19.55;37.29;100739.00;5132546;27;20439;-65
2021/05/18 12:42:27;;;;;;;4.03;3.73;;;;;;;19.32;38.04;100743.13;5126514;27;20790;-65
2021/05/18 12:45:01;;;;;;;4.63;4.30;;;;;;;19.75;37.63;100744.59;5117800;27;20201;-64
2021/05/18 12:47:31;;;;;;;4.60;4.30;;;;;;;19.37;37.78;100743.88;5107362;27;20837;-64
2021/05/18 12:49:58;;;;;;;3.90;3.60;;;;;;;19.07;38.07;100750.84;5126104;27;20422;-65
2021/05/18 12:52:23;;;;;;;3.83;3.53;;;;;;;18.24;40.09;100749.25;5107436;27;20487;-65
2021/05/18 12:54:50;;;;;;;3.60;3.40;;;;;;;17.40;40.88;100757.03;5130758;27;20444;-65
2021/05/18 12:57:20;;;;;;;4.50;4.10;;;;;;;17.59;41.84;100749.66;5122299;27;20175;-64
2021/05/18 13:00:06;;;;;;;4.30;4.00;;;;;;;17.24;42.92;100756.44;5129174;27;20431;-64
2021/05/18 13:02:33;;;;;;;4.00;3.70;;;;;;;17.46;41.83;100760.44;5115408;27;20743;-65
2021/05/18 13:05:10;;;;;;;4.30;3.80;;;;;;;17.82;41.87;100754.50;5121928;27;20532;-64
2021/05/18 13:07:36;;;;;;;4.87;4.20;;;;;;;17.85;40.92;100762.34;5133259;27;20753;-65
2021/05/18 13:10:10;;;;;;;4.17;3.87;;;;;;;17.44;42.72;100756.97;5127257;27;20496;-64
2021/05/18 13:12:35;;;;;;;4.83;4.43;;;;;;;17.44;43.19;100762.25;5114914;27;20184;-65
2021/05/18 13:15:04;;;;;;;4.83;4.43;;;;;;;17.03;43.87;100765.59;5110782;27;20409;-65
2021/05/18 13:17:29;;;;;;;4.40;4.00;;;;;;;17.28;43.75;100769.53;5133159;27;20240;-64
2021/05/18 13:20:07;;;;;;;5.10;4.10;;;;;;;17.02;43.63;100769.97;5126090;27;20452;-65
2021/05/18 13:22:34;;;;;;;3.97;3.60;;;;;;;16.25;45.53;100779.00;5117625;27;20238;-65
2021/05/18 13:26:25;;;;;;;3.70;3.40;;;;;;;15.42;48.39;100773.75;5117022;27;20747;-65
2021/05/18 13:27:57;;;;;;;4.27;3.83;;;;;;;15.58;49.60;100792.03;5104532;28;20404;-64
2021/05/18 13:30:25;;;;;;;5.30;4.80;;;;;;;15.01;52.96;100782.91;5101945;27;20419;-63
2021/05/18 13:32:51;;;;;;;5.00;4.60;;;;;;;15.04;53.24;100782.00;5131765;27;20839;-63
2021/05/18 13:35:17;;;;;;;4.37;3.70;;;;;;;14.98;52.35;100782.94;5134900;27;20467;-65
2021/05/18 13:37:44;;;;;;;3.80;3.50;;;;;;;14.60;52.35;100784.00;5125066;27;20435;-66
2021/05/18 13:40:10;;;;;;;4.23;3.93;;;;;;;15.21;52.03;100781.84;5117772;27;20745;-64
2021/05/18 13:42:35;;;;;;;4.63;4.27;;;;;;;15.29;53.99;100780.91;5132130;27;20476;-65
2021/05/18 13:45:01;;;;;;;4.30;4.00;;;;;;;15.72;53.48;100770.84;5121632;27;20837;-63
2021/05/18 13:47:26;;;;;;;4.97;4.57;;;;;;;15.93;53.16;100775.88;5133420;27;20556;-64
2021/05/18 13:49:51;;;;;;;5.40;4.90;;;;;;;16.16;53.39;100775.59;5113796;28;20176;-64
2021/05/18 13:52:17;;;;;;;4.80;4.40;;;;;;;16.19;52.56;100769.41;5121125;27;20233;-63
2021/05/18 13:54:42;;;;;;;5.07;4.67;;;;;;;16.55;50.44;100774.19;5110956;27;20274;-62
2021/05/18 13:57:07;;;;;;;4.40;4.00;;;;;;;17.29;48.03;100770.41;5129709;27;20560;-64
2021/05/18 13:59:33;;;;;;;4.70;4.07;;;;;;;17.35;48.38;100778.22;5109644;27;20179;-62
2021/05/18 14:01:58;;;;;;;3.00;2.80;;;;;;;17.04;45.38;100772.63;5128979;27;20203;-63
2021/05/18 14:04:24;;;;;;;3.53;3.23;;;;;;;17.09;45.18;100779.53;5129529;28;20185;-63
2021/05/18 14:09:49;;;;;;;3.00;2.80;;;;;;;17.77;44.05;100775.66;5113041;28;20473;-64
2021/05/18 14:12:14;;;;;;;2.83;2.63;;;;;;;18.38;43.16;100764.75;5125869;27;20703;-63
2021/05/18 14:14:40;;;;;;;3.30;3.10;;;;;;;18.23;42.45;100762.47;5128427;28;20266;-63
2021/05/18 14:17:05;;;;;;;3.67;3.37;;;;;;;18.58;41.91;100756.38;5116618;28;20180;-63
2021/05/18 14:19:30;;;;;;;3.27;2.97;;;;;;;18.05;39.99;100756.69;5124178;28;20205;-68
2021/05/18 14:21:56;;;;;;;3.30;3.00;;;;;;;18.52;39.81;100753.88;5097744;28;20298;-66
2021/05/18 14:24:35;;;;;;;3.23;2.90;;;;;;;18.26;40.51;100749.19;5100789;28;20315;-66
2021/05/18 14:27:01;;;;;;;3.70;3.40;;;;;;;18.01;40.41;100747.09;5107960;27;20199;-66
2021/05/18 14:29:26;;;;;;;3.60;3.30;;;;;;;17.82;41.70;100751.84;5098727;28;20838;-66
2021/05/18 14:31:54;;;;;;;3.43;3.17;;;;;;;18.66;39.83;100753.56;5101684;28;20218;-66
2021/05/18 14:34:19;;;;;;;4.00;3.30;;;;;;;18.67;40.25;100747.34;5101730;28;20183;-66
2021/05/18 14:36:45;;;;;;;5.00;3.83;;;;;;;18.70;40.62;100749.94;5100414;28;20437;-65
2021/05/18 14:39:11;;;;;;;4.47;3.80;;;;;;;19.08;40.03;100756.09;5105049;28;20205;-65
2021/05/18 14:44:25;;;;;;;3.90;3.60;;;;;;;18.34;41.99;100756.03;5101538;28;20452;-66
2021/05/18 14:46:59;;;;;;;4.70;3.63;;;;;;;17.83;41.48;100762.38;5101162;28;20402;-65
2021/05/18 14:55:07;;;;;;;3.87;3.57;;;;;;;18.62;41.12;100759.84;5088415;28;20481;-67
2021/05/18 14:57:32;;;;;;;3.40;3.20;;;;;;;17.67;40.41;100753.00;5114482;28;20457;-66
2021/05/18 14:59:58;;;;;;;4.20;3.70;;;;;;;18.12;40.87;100744.22;5096870;28;20441;-65
2021/05/18 15:02:23;;;;;;;4.00;3.70;;;;;;;18.42;41.34;100747.94;5110698;28;20242;-65
2021/05/18 15:04:48;;;;;;;3.97;3.67;;;;;;;17.93;41.26;100756.94;5112453;28;20473;-66
2021/05/18 15:07:14;;;;;;;3.87;3.57;;;;;;;17.66;41.01;100757.41;5112739;28;20207;-66
2021/05/18 15:09:40;;;;;;;3.80;3.50;;;;;;;17.17;42.51;100761.84;5106851;27;20211;-65
2021/05/18 15:12:06;;;;;;;5.07;3.97;;;;;;;17.22;42.74;100766.16;5112488;28;20190;-66
2021/05/18 15:14:32;;;;;;;4.37;3.97;;;;;;;17.68;41.65;100762.66;5117833;28;20175;-66
2021/05/18 15:16:57;;;;;;;4.00;3.70;;;;;;;17.46;43.39;100763.06;5116583;28;20871;-64
2021/05/18 15:19:24;;;;;;;7.27;4.13;;;;;;;17.15;43.43;100760.97;5106086;28;20199;-65
2021/05/18 15:21:50;;;;;;;4.10;3.63;;;;;;;17.45;43.41;100758.69;5117236;28;20471;-66
2021/05/18 15:24:15;;;;;;;3.90;3.60;;;;;;;17.53;43.93;100762.97;5121460;27;20492;-65
2021/05/18 15:26:40;;;;;;;4.47;4.07;;;;;;;17.81;43.02;100761.50;5125469;27;20187;-65
2021/05/18 15:29:06;;;;;;;4.10;3.70;;;;;;;17.78;43.85;100761.59;5100454;28;20529;-66
2021/05/18 15:31:32;;;;;;;5.00;4.50;;;;;;;17.67;43.72;100768.81;5103500;28;20516;-65
2021/05/18 15:33:58;;;;;;;4.83;4.43;;;;;;;17.93;43.65;100760.44;5101640;28;20192;-66
2021/05/18 15:36:23;;;;;;;5.27;4.77;;;;;;;17.96;43.81;100760.38;5107205;27;20444;-66
2021/05/18 15:38:49;;;;;;;4.30;3.90;;;;;;;18.21;43.27;100754.56;5105277;28;20651;-66
2021/05/18 15:41:15;;;;;;;4.67;4.27;;;;;;;18.04;43.60;100756.72;5111342;28;20198;-66
2021/05/18 15:43:43;;;;;;;4.47;4.10;;;;;;;18.03;43.37;100762.88;5107989;28;20426;-64
2021/05/18 15:46:09;;;;;;;4.50;4.10;;;;;;;17.69;45.26;100764.41;5099315;28;20253;-65
2021/05/18 15:48:34;;;;;;;4.47;4.10;;;;;;;17.50;44.76;100766.53;5114790;28;20778;-63
2021/05/18 15:51:00;;;;;;;4.20;3.90;;;;;;;17.49;45.16;100770.03;5120486;28;20413;-66
2021/05/18 15:53:25;;;;;;;4.20;3.90;;;;;;;17.44;44.67;100775.41;5120567;27;20222;-66
2021/05/18 15:55:51;;;;;;;4.87;4.37;;;;;;;17.72;44.32;100772.25;5122831;27;20186;-66
2021/05/18 15:58:16;;;;;;;5.70;4.37;;;;;;;17.27;45.23;100780.13;5105836;28;20463;-65
2021/05/18 16:00:42;;;;;;;4.77;4.37;;;;;;;17.27;45.98;100786.25;5101112;28;20221;-66
2021/05/18 16:03:07;;;;;;;5.77;5.20;;;;;;;16.21;50.86;100790.44;5110731;28;20223;-66